createdAt,value
2018-07-15T00:03:22.996Z,64.08
2018-07-15T00:08:18.281Z,64.02
2018-07-15T00:13:13.566Z,66.02
2018-07-15T00:18:08.437Z,66.76
2018-07-15T00:23:03.139Z,66.56
2018-07-15T00:27:57.756Z,66.74
2018-07-15T00:32:51.987Z,65.55
2018-07-15T00:37:46.588Z,66.35
2018-07-15T00:42:41.188Z,65.69
2018-07-15T00:47:35.799Z,65.48
2018-07-15T00:52:30.436Z,62.15
2018-07-15T00:57:25.173Z,66.53
2018-07-15T01:02:19.921Z,71.24
2018-07-15T01:07:14.636Z,75.54
2018-07-15T01:12:09.031Z,76.01
2018-07-15T01:17:03.797Z,75.39
2018-07-15T01:21:58.512Z,74.93
2018-07-15T01:26:53.163Z,76.29
2018-07-15T01:31:47.825Z,76.19
2018-07-15T01:36:42.501Z,75.84
2018-07-15T01:41:37.177Z,72.05
2018-07-15T01:46:31.850Z,73.08
2018-07-15T01:51:26.405Z,76.01
2018-07-15T01:56:20.980Z,74.13
2018-07-15T02:01:15.623Z,73.15
2018-07-15T02:06:09.868Z,74.17
2018-07-15T02:11:04.463Z,72.59
2018-07-15T02:15:59.088Z,74.83
2018-07-15T02:20:53.784Z,72.66
2018-07-15T02:25:48.409Z,68.96
2018-07-15T02:30:43.048Z,69.16
2018-07-15T02:35:37.640Z,70.55
2018-07-15T02:40:32.486Z,72.29
2018-07-15T02:45:27.311Z,71.90
2018-07-15T02:50:21.900Z,70.95
2018-07-15T02:55:16.580Z,69.07
2018-07-15T03:00:11.167Z,69.69
2018-07-15T03:05:05.820Z,71.23
2018-07-15T03:10:00.188Z,69.03
2018-07-15T03:14:55.108Z,69.58
2018-07-15T03:19:49.767Z,69.33
2018-07-15T03:24:44.399Z,71.48
2018-07-15T03:29:39.072Z,70.80
2018-07-15T03:34:33.640Z,70.25
2018-07-15T03:39:28.244Z,69.99
2018-07-15T03:44:22.903Z,69.78
2018-07-15T03:49:17.207Z,70.03
2018-07-15T03:54:11.890Z,69.36
2018-07-15T03:59:06.494Z,70.71
2018-07-15T04:04:01.687Z,69.85
2018-07-15T04:08:56.473Z,69.33
2018-07-15T04:13:51.430Z,69.87
2018-07-15T04:18:46.100Z,69.94
2018-07-15T04:23:40.748Z,69.36
2018-07-15T04:28:35.456Z,72.00
2018-07-15T04:33:30.089Z,72.47
2018-07-15T04:38:24.765Z,70.42
2018-07-15T04:43:19.582Z,68.88
2018-07-15T04:48:14.241Z,70.13
2018-07-15T04:53:08.939Z,71.96
2018-07-15T04:58:04.530Z,75.18
2018-07-15T05:02:59.280Z,79.11
2018-07-15T05:07:53.967Z,83.59
2018-07-15T05:12:48.707Z,85.67
2018-07-15T05:17:43.369Z,84.42
2018-07-15T05:22:37.969Z,85.34
2018-07-15T05:27:32.579Z,87.18
2018-07-15T05:32:27.156Z,84.61
2018-07-15T05:37:21.731Z,84.82
2018-07-15T05:42:16.357Z,85.20
2018-07-15T05:47:10.976Z,85.36
2018-07-15T05:52:06.850Z,84.70
2018-07-15T05:57:01.471Z,85.14
2018-07-15T06:01:56.135Z,85.87
2018-07-15T06:06:50.819Z,84.36
2018-07-15T06:11:46.599Z,85.04
2018-07-15T06:16:41.183Z,85.18
2018-07-15T06:21:35.838Z,84.44
2018-07-15T06:26:30.513Z,84.20
2018-07-15T06:31:25.190Z,84.33
2018-07-15T06:36:19.832Z,83.94
2018-07-15T06:41:14.568Z,84.79
2018-07-15T06:46:09.427Z,83.82
2018-07-15T06:51:03.750Z,83.73
2018-07-15T06:55:58.420Z,84.51
2018-07-15T07:00:53.010Z,84.78
2018-07-15T07:05:47.713Z,84.24
2018-07-15T07:10:42.444Z,84.01
2018-07-15T07:20:26.939Z,84.69
2018-07-15T07:25:21.681Z,81.41
2018-07-15T07:30:16.362Z,82.04
2018-07-15T07:35:10.948Z,82.57
2018-07-15T07:40:06.780Z,81.36
2018-07-15T07:45:01.399Z,80.39
2018-07-15T07:49:56.009Z,75.55
2018-07-15T07:54:50.656Z,77.82
2018-07-15T07:59:44.964Z,76.01
2018-07-15T08:04:40.294Z,76.23
2018-07-15T08:09:34.933Z,71.78
2018-07-15T08:14:29.679Z,69.08
2018-07-15T08:19:24.447Z,69.06
2018-07-15T08:24:19.289Z,66.42
2018-07-15T08:29:14.903Z,64.20
2018-07-15T08:34:09.626Z,61.46
2018-07-15T08:39:05.453Z,65.46
2018-07-15T08:44:00.111Z,65.53
2018-07-15T08:48:54.780Z,63.48
2018-07-15T08:53:49.519Z,65.40
2018-07-15T08:58:44.722Z,60.93
2018-07-15T09:03:39.386Z,62.08
2018-07-15T09:08:34.442Z,60.92
2018-07-15T09:13:29.083Z,60.36
2018-07-15T09:18:23.716Z,61.56
2018-07-15T09:23:18.311Z,58.98
2018-07-15T09:28:13.177Z,59.15
2018-07-15T09:33:07.864Z,57.54
2018-07-15T09:38:02.943Z,57.38
2018-07-15T09:42:57.524Z,55.54
2018-07-15T09:47:52.293Z,53.79
2018-07-15T09:52:47.033Z,54.49
2018-07-15T09:57:41.651Z,55.54
2018-07-15T10:02:36.284Z,54.15
2018-07-15T10:07:31.063Z,50.01
2018-07-15T10:12:25.797Z,50.48
2018-07-15T10:17:20.542Z,51.86
2018-07-15T10:22:15.170Z,50.80
2018-07-15T10:27:09.799Z,50.27
2018-07-15T10:32:04.616Z,50.27
2018-07-15T10:36:59.283Z,48.84
2018-07-15T10:41:53.940Z,49.86
2018-07-15T10:46:48.704Z,49.60
2018-07-15T10:51:43.397Z,45.36
2018-07-15T10:56:38.060Z,49.97
2018-07-15T11:01:32.704Z,46.58
2018-07-15T11:06:27.052Z,48.99
2018-07-15T11:11:21.701Z,46.13
2018-07-15T11:16:16.478Z,46.99
2018-07-15T11:21:11.213Z,48.69
2018-07-15T11:26:05.969Z,47.56
2018-07-15T11:31:00.699Z,49.69
2018-07-15T11:35:55.229Z,48.01
2018-07-15T11:40:49.911Z,42.89
2018-07-15T11:45:44.525Z,46.52
2018-07-15T11:50:39.156Z,46.80
2018-07-15T11:55:33.718Z,45.68
2018-07-15T12:00:28.351Z,45.59
2018-07-15T12:05:22.940Z,43.15
2018-07-15T12:10:17.541Z,43.36
2018-07-15T12:15:12.130Z,43.22
2018-07-15T12:20:06.796Z,43.11
2018-07-15T12:25:01.468Z,45.34
2018-07-15T12:29:56.112Z,45.22
2018-07-15T12:34:50.762Z,45.72
2018-07-15T12:39:45.355Z,42.25
2018-07-15T12:44:39.978Z,44.32
2018-07-15T12:49:34.647Z,42.58
2018-07-15T12:54:29.379Z,42.71
2018-07-15T12:59:24.055Z,42.38
2018-07-15T13:04:18.751Z,42.10
2018-07-15T13:09:13.383Z,41.82
2018-07-15T13:14:08.029Z,38.42
2018-07-15T13:19:02.738Z,40.60
2018-07-15T13:23:57.499Z,41.50
2018-07-15T13:28:52.153Z,42.95
2018-07-15T13:33:47.045Z,40.52
2018-07-15T13:38:41.651Z,40.20
2018-07-15T13:43:36.430Z,41.13
2018-07-15T13:48:31.292Z,40.46
2018-07-15T13:53:25.932Z,41.87
2018-07-15T13:58:20.636Z,40.90
2018-07-15T14:03:15.348Z,42.10
2018-07-15T14:08:10.093Z,39.63
2018-07-15T14:13:04.877Z,39.86
2018-07-15T14:17:59.479Z,37.79
2018-07-15T14:22:54.211Z,35.40
2018-07-15T14:27:48.850Z,35.53
2018-07-15T14:32:43.401Z,38.26
2018-07-15T14:37:38.205Z,34.43
2018-07-15T14:42:32.811Z,35.96
2018-07-15T14:47:27.490Z,37.06
2018-07-15T14:52:22.188Z,36.36
2018-07-15T14:57:16.860Z,38.25
2018-07-15T15:02:11.577Z,37.38
2018-07-15T15:07:06.420Z,39.33
2018-07-15T15:12:01.124Z,36.06
2018-07-15T15:16:55.897Z,38.37
2018-07-15T15:21:53.423Z,34.43
2018-07-15T15:26:48.197Z,35.63
2018-07-15T15:31:43.148Z,33.11
2018-07-15T15:36:37.895Z,32.61
2018-07-15T15:41:32.608Z,34.45
2018-07-15T15:46:27.219Z,33.79
2018-07-15T15:51:21.904Z,36.14
2018-07-15T15:56:16.468Z,34.52
2018-07-15T16:01:11.120Z,35.62
2018-07-15T16:06:05.949Z,33.37
2018-07-15T16:11:00.527Z,31.94
2018-07-15T16:15:55.256Z,34.37
2018-07-15T16:20:49.831Z,33.06
2018-07-15T16:25:44.551Z,31.94
2018-07-15T16:30:39.299Z,32.49
2018-07-15T16:35:33.972Z,37.73
2018-07-15T16:40:28.729Z,40.75
2018-07-15T16:45:23.315Z,45.24
2018-07-15T16:50:18.007Z,45.79
2018-07-15T16:55:12.326Z,43.21
2018-07-15T17:00:07.229Z,43.89
2018-07-15T17:05:01.896Z,46.51
2018-07-15T17:09:57.249Z,44.25
2018-07-15T17:14:52.013Z,46.22
2018-07-15T17:19:46.728Z,47.45
2018-07-15T17:24:41.419Z,47.93
2018-07-15T17:29:35.738Z,48.08
2018-07-15T17:34:30.481Z,48.25
2018-07-15T17:44:25.947Z,50.48
2018-07-15T17:49:20.918Z,50.06
2018-07-15T17:54:15.693Z,48.10
2018-07-15T17:59:10.970Z,49.15
2018-07-15T18:04:05.713Z,48.94
2018-07-15T18:09:00.527Z,49.93
2018-07-15T18:13:55.216Z,49.44
2018-07-15T18:18:54.078Z,47.20
2018-07-15T18:23:48.892Z,49.12
2018-07-15T18:28:44.255Z,50.46
2018-07-15T18:33:39.251Z,52.68
2018-07-15T18:38:34.326Z,51.14
2018-07-15T18:43:29.368Z,53.03
2018-07-15T18:48:24.365Z,53.66
2018-07-15T18:53:19.132Z,51.15
2018-07-15T18:58:13.848Z,51.96
2018-07-15T19:03:08.600Z,52.28
2018-07-15T19:08:03.399Z,53.23
2018-07-15T19:12:58.173Z,54.71
2018-07-15T19:17:52.902Z,56.50
2018-07-15T19:22:47.690Z,55.08
2018-07-15T19:27:42.421Z,55.90
2018-07-15T19:32:37.116Z,56.81
2018-07-15T19:37:31.949Z,57.08
2018-07-15T19:42:26.772Z,57.59
2018-07-15T19:47:21.763Z,57.12
2018-07-15T19:52:16.489Z,58.74
2018-07-15T19:57:13.159Z,58.03
2018-07-15T20:02:08.127Z,58.39
2018-07-15T20:07:02.855Z,59.33
2018-07-15T20:11:57.615Z,55.58
2018-07-15T20:16:52.316Z,56.37
2018-07-15T20:21:47.108Z,56.16
2018-07-15T20:26:41.828Z,55.08
2018-07-15T20:31:36.567Z,54.94
2018-07-15T20:36:31.373Z,61.10
2018-07-15T20:41:26.346Z,71.89
2018-07-15T20:46:21.289Z,72.04
2018-07-15T20:51:16.197Z,71.14
2018-07-15T20:56:11.087Z,71.24
2018-07-15T21:01:05.702Z,70.55
2018-07-15T21:06:00.447Z,73.21
2018-07-15T21:10:55.213Z,68.87
2018-07-15T21:15:50.043Z,71.11
2018-07-15T21:20:45.032Z,70.59
2018-07-15T21:25:40.119Z,71.86
2018-07-15T21:30:35.056Z,71.36
2018-07-15T21:35:30.257Z,72.86
2018-07-15T21:40:25.367Z,73.21
2018-07-15T21:45:21.067Z,76.99
2018-07-15T21:50:16.577Z,76.71
2018-07-15T21:55:13.988Z,75.65
2018-07-15T22:00:09.514Z,76.14
2018-07-15T22:05:04.854Z,78.17
2018-07-15T22:10:12.153Z,77.40
2018-07-15T22:15:07.021Z,77.55
2018-07-15T22:20:01.953Z,79.21
2018-07-15T22:24:56.828Z,76.64
2018-07-15T22:29:51.686Z,78.28
2018-07-15T22:34:46.459Z,79.60
2018-07-15T22:39:41.223Z,76.92
2018-07-15T22:44:36.107Z,77.54
2018-07-15T22:49:30.920Z,78.30
2018-07-15T22:54:25.924Z,78.87
2018-07-15T22:59:20.802Z,78.40
2018-07-15T23:04:16.288Z,76.27
2018-07-15T23:09:12.145Z,77.85
2018-07-15T23:14:07.608Z,78.51
2018-07-15T23:19:02.448Z,77.97
2018-07-15T23:23:57.236Z,77.63
2018-07-15T23:28:51.643Z,79.50
2018-07-15T23:33:46.377Z,79.45
2018-07-15T23:38:41.360Z,77.63
2018-07-15T23:43:36.829Z,77.77
2018-07-15T23:48:31.587Z,77.69
2018-07-15T23:53:26.395Z,78.54
2018-07-15T23:58:21.144Z,78.23
